Nearby METAR Reports

 

NZCH - Christchurch Int, New Zealand
Distance from station: W 10km
Updated: 02 Mar 2024 13:30
Clear
Clear
 Wind from ENE
Wind: ENE 19 km/h
Temperature: 24°C
Dew Point: 15°C
Humidity: 57%
Barometer: 1002 hPa
Clouds: Clear
Visibility: 10 km
2024/03/02 00:30 NZCH 020030Z AUTO 07010KT 040V100 9999 NCD 24/15 Q1002